Time,TemperatureF,DewpointF,PressureIn,WindDirection,WindDirectionDegrees,WindSpeedMPH,WindSpeedGustMPH,Humidity,HourlyPrecipIn,Conditions,Clouds,dailyrainin,SoftwareType,DateUTC
2013-02-16 00:00:00,32.8,30.2,29.79,NNE,23,1.1,1.1,90,0.00,,,0.00,WUHU216HW,2013-02-16 05:00:00,
2013-02-16 00:05:00,32.8,30.2,29.79,NNE,23,1.1,1.1,90,0.00,,,0.00,WUHU216HW,2013-02-16 05:05:00,
2013-02-16 00:06:00,32.8,30.2,29.79,NNE,23,1.1,1.1,90,0.00,,,0.00,WUHU216HW,2013-02-16 05:06:00,
2013-02-16 00:30:00,32.0,29.5,29.80,WNW,293,2.7,2.7,90,0.00,,,0.00,WUHU216HW,2013-02-16 05:30:00,
2013-02-16 00:35:00,32.0,29.5,29.80,WNW,293,2.7,2.7,90,0.00,,,0.00,WUHU216HW,2013-02-16 05:35:00,
2013-02-16 00:36:00,32.0,29.5,29.80,WNW,293,2.7,2.7,90,0.00,,,0.00,WUHU216HW,2013-02-16 05:36:00,
2013-02-16 01:00:00,32.8,30.7,29.79,NNW,338,0.7,0.7,92,0.00,,,0.00,WUHU216HW,2013-02-16 06:00:00,
2013-02-16 01:05:00,32.8,30.7,29.79,NNW,338,0.7,0.7,92,0.00,,,0.00,WUHU216HW,2013-02-16 06:05:00,
2013-02-16 01:06:00,32.8,30.7,29.79,NNW,338,0.7,0.7,92,0.00,,,0.00,WUHU216HW,2013-02-16 06:06:00,
2013-02-16 01:07:00,32.8,30.7,29.79,NNW,338,0.7,0.7,92,0.00,,,0.00,WUHU216HW,2013-02-16 06:07:00,
2013-02-16 01:30:00,32.6,30.0,29.79,ESE,113,2.9,2.9,90,0.00,,,0.00,WUHU216HW,2013-02-16 06:30:00,
2013-02-16 01:32:00,32.6,30.0,29.79,ESE,113,2.9,2.9,90,0.00,,,0.00,WUHU216HW,2013-02-16 06:32:00,
2013-02-16 01:35:00,32.6,30.0,29.79,ESE,113,2.9,2.9,90,0.00,,,0.00,WUHU216HW,2013-02-16 06:35:00,
2013-02-16 01:36:00,32.6,30.0,29.79,ESE,113,2.9,2.9,90,0.00,,,0.00,WUHU216HW,2013-02-16 06:36:00,
2013-02-16 01:37:00,32.6,30.0,29.79,ESE,113,2.9,2.9,90,0.00,,,0.00,WUHU216HW,2013-02-16 06:37:00,
2013-02-16 02:00:00,32.0,29.8,29.78,NNW,338,0.0,0.0,91,0.00,,,0.00,WUHU216HW,2013-02-16 07:00:00,
2013-02-16 02:01:00,32.0,29.8,29.78,NNW,338,0.0,0.0,91,0.00,,,0.00,WUHU216HW,2013-02-16 07:01:00,
2013-02-16 02:05:00,32.0,29.8,29.78,NNW,338,0.0,0.0,91,0.00,,,0.00,WUHU216HW,2013-02-16 07:05:00,
2013-02-16 02:06:00,32.0,29.8,29.78,NNW,338,0.0,0.0,91,0.00,,,0.00,WUHU216HW,2013-02-16 07:06:00,
2013-02-16 02:07:00,32.0,29.8,29.78,NNW,338,0.0,0.0,91,0.00,,,0.00,WUHU216HW,2013-02-16 07:07:00,
2013-02-16 02:30:00,32.4,30.1,29.78,ESE,113,1.3,1.3,91,0.00,,,0.00,WUHU216HW,2013-02-16 07:30:00,
2013-02-16 02:31:00,32.4,30.1,29.78,ESE,113,1.3,1.3,91,0.00,,,0.00,WUHU216HW,2013-02-16 07:31:00,
2013-02-16 02:35:00,32.4,30.1,29.78,ESE,113,1.3,1.3,91,0.00,,,0.00,WUHU216HW,2013-02-16 07:35:00,
2013-02-16 02:36:00,32.4,30.1,29.78,ESE,113,1.3,1.3,91,0.00,,,0.00,WUHU216HW,2013-02-16 07:36:00,
2013-02-16 02:37:00,32.4,30.1,29.78,ESE,113,1.3,1.3,91,0.00,,,0.00,WUHU216HW,2013-02-16 07:37:00,
2013-02-16 03:00:00,31.7,29.2,29.77,ESE,113,0.9,0.9,90,0.00,,,0.00,WUHU216HW,2013-02-16 08:00:00,
2013-02-16 03:01:00,31.7,29.2,29.77,ESE,113,0.9,0.9,90,0.00,,,0.00,WUHU216HW,2013-02-16 08:01:00,
2013-02-16 03:05:00,31.7,29.2,29.77,ESE,113,0.9,0.9,90,0.00,,,0.00,WUHU216HW,2013-02-16 08:05:00,
2013-02-16 03:06:00,31.7,29.2,29.77,ESE,113,0.9,0.9,90,0.00,,,0.00,WUHU216HW,2013-02-16 08:06:00,
2013-02-16 03:07:00,31.7,29.2,29.77,ESE,113,0.9,0.9,90,0.00,,,0.00,WUHU216HW,2013-02-16 08:07:00,
2013-02-16 03:30:00,32.0,29.0,29.77,ESE,113,1.8,1.8,88,0.00,,,0.00,WUHU216HW,2013-02-16 08:30:00,
2013-02-16 03:31:00,32.0,29.0,29.77,ESE,113,1.8,1.8,88,0.00,,,0.00,WUHU216HW,2013-02-16 08:31:00,
2013-02-16 03:35:00,32.0,29.0,29.77,ESE,113,1.8,1.8,88,0.00,,,0.00,WUHU216HW,2013-02-16 08:35:00,
2013-02-16 03:36:00,32.0,29.0,29.77,ESE,113,1.8,1.8,88,0.00,,,0.00,WUHU216HW,2013-02-16 08:36:00,
2013-02-16 03:37:00,32.0,29.0,29.77,ESE,113,1.8,1.8,88,0.00,,,0.00,WUHU216HW,2013-02-16 08:37:00,
2013-02-16 04:00:00,32.4,28.1,29.77,ESE,113,0.7,0.7,84,0.00,,,0.00,WUHU216HW,2013-02-16 09:00:00,
2013-02-16 04:01:00,32.4,28.1,29.77,ESE,113,0.7,0.7,84,0.00,,,0.00,WUHU216HW,2013-02-16 09:01:00,
2013-02-16 04:05:00,32.4,28.1,29.77,ESE,113,0.7,0.7,84,0.00,,,0.00,WUHU216HW,2013-02-16 09:05:00,
2013-02-16 04:06:00,32.4,28.1,29.77,ESE,113,0.7,0.7,84,0.00,,,0.00,WUHU216HW,2013-02-16 09:06:00,
2013-02-16 04:30:00,32.4,27.8,29.76,ESE,113,1.1,1.1,83,0.00,,,0.00,WUHU216HW,2013-02-16 09:30:00,
2013-02-16 04:35:00,32.4,27.8,29.76,ESE,113,1.1,1.1,83,0.00,,,0.00,WUHU216HW,2013-02-16 09:35:00,
2013-02-16 04:36:00,32.4,27.8,29.76,ESE,113,1.1,1.1,83,0.00,,,0.00,WUHU216HW,2013-02-16 09:36:00,
2013-02-16 05:00:00,32.8,26.3,29.77,ESE,113,2.7,2.7,77,0.00,,,0.00,WUHU216HW,2013-02-16 10:00:00,
2013-02-16 05:01:00,32.8,26.3,29.77,ESE,113,2.7,2.7,77,0.00,,,0.00,WUHU216HW,2013-02-16 10:01:00,
2013-02-16 05:05:00,32.8,26.3,29.77,ESE,113,2.7,2.7,77,0.00,,,0.00,WUHU216HW,2013-02-16 10:05:00,
2013-02-16 05:06:00,32.8,26.3,29.77,ESE,113,2.7,2.7,77,0.00,,,0.00,WUHU216HW,2013-02-16 10:06:00,
2013-02-16 05:30:00,32.8,25.7,29.77,ESE,113,0.4,0.4,75,0.00,,,0.00,WUHU216HW,2013-02-16 10:30:00,
2013-02-16 05:31:00,32.8,25.7,29.77,ESE,113,0.4,0.4,75,0.00,,,0.00,WUHU216HW,2013-02-16 10:31:00,
2013-02-16 05:35:00,32.8,25.7,29.77,ESE,113,0.4,0.4,75,0.00,,,0.00,WUHU216HW,2013-02-16 10:35:00,
2013-02-16 05:36:00,32.8,25.7,29.77,ESE,113,0.4,0.4,75,0.00,,,0.00,WUHU216HW,2013-02-16 10:36:00,
2013-02-16 05:37:00,32.8,25.7,29.77,ESE,113,0.4,0.4,75,0.00,,,0.00,WUHU216HW,2013-02-16 10:37:00,
2013-02-16 06:00:00,32.0,25.7,29.77,ESE,113,0.4,0.4,77,0.00,,,0.00,WUHU216HW,2013-02-16 11:00:00,
2013-02-16 06:01:00,32.0,25.7,29.77,ESE,113,0.4,0.4,77,0.00,,,0.00,WUHU216HW,2013-02-16 11:01:00,
2013-02-16 06:06:00,32.0,25.7,29.77,ESE,113,0.4,0.4,77,0.00,,,0.00,WUHU216HW,2013-02-16 11:06:00,
2013-02-16 06:07:00,32.0,25.7,29.77,ESE,113,0.4,0.4,77,0.00,,,0.00,WUHU216HW,2013-02-16 11:07:00,
2013-02-16 06:30:00,32.0,25.7,29.77,ESE,113,0.0,0.0,77,0.00,,,0.00,WUHU216HW,2013-02-16 11:30:00,
2013-02-16 06:31:00,32.0,25.7,29.77,ESE,113,0.0,0.0,77,0.00,,,0.00,WUHU216HW,2013-02-16 11:31:00,
2013-02-16 06:33:00,32.0,25.7,29.77,ESE,113,0.0,0.0,77,0.00,,,0.00,WUHU216HW,2013-02-16 11:33:00,
2013-02-16 06:35:00,32.0,25.7,29.77,ESE,113,0.0,0.0,77,0.00,,,0.00,WUHU216HW,2013-02-16 11:35:00,
2013-02-16 06:36:00,32.0,25.7,29.77,ESE,113,0.0,0.0,77,0.00,,,0.00,WUHU216HW,2013-02-16 11:36:00,
2013-02-16 06:39:00,32.0,25.7,29.77,ESE,113,0.0,0.0,77,0.00,,,0.00,WUHU216HW,2013-02-16 11:39:00,
2013-02-16 07:00:00,32.0,26.0,29.77,ESE,113,1.1,1.1,78,0.00,,,0.00,WUHU216HW,2013-02-16 12:00:00,
2013-02-16 07:01:00,32.0,26.0,29.77,ESE,113,1.1,1.1,78,0.00,,,0.00,WUHU216HW,2013-02-16 12:01:00,
2013-02-16 07:05:00,32.0,26.0,29.77,ESE,113,1.1,1.1,78,0.00,,,0.00,WUHU216HW,2013-02-16 12:05:00,
2013-02-16 07:07:00,32.0,26.0,29.77,ESE,113,1.1,1.1,78,0.00,,,0.00,WUHU216HW,2013-02-16 12:07:00,
2013-02-16 07:30:00,31.7,25.7,29.76,ESE,113,1.1,1.1,78,0.00,,,0.00,WUHU216HW,2013-02-16 12:30:00,
2013-02-16 07:31:00,31.7,25.7,29.76,ESE,113,1.1,1.1,78,0.00,,,0.00,WUHU216HW,2013-02-16 12:31:00,
2013-02-16 07:35:00,31.7,25.7,29.76,ESE,113,1.1,1.1,78,0.00,,,0.00,WUHU216HW,2013-02-16 12:35:00,
2013-02-16 07:36:00,31.7,25.7,29.76,ESE,113,1.1,1.1,78,0.00,,,0.00,WUHU216HW,2013-02-16 12:36:00,
2013-02-16 08:00:00,31.9,26.7,29.76,ESE,113,0.0,0.0,81,0.00,,,0.00,WUHU216HW,2013-02-16 13:00:00,
2013-02-16 08:05:00,31.9,26.7,29.76,ESE,113,0.0,0.0,81,0.00,,,0.00,WUHU216HW,2013-02-16 13:05:00,
2013-02-16 08:06:00,31.9,26.7,29.76,ESE,113,0.0,0.0,81,0.00,,,0.00,WUHU216HW,2013-02-16 13:06:00,
2013-02-16 08:07:00,31.9,26.7,29.76,ESE,113,0.0,0.0,81,0.00,,,0.00,WUHU216HW,2013-02-16 13:07:00,
2013-02-16 08:30:00,33.5,27.6,29.76,ESE,113,0.4,0.4,79,0.00,,,0.00,WUHU216HW,2013-02-16 13:30:00,
2013-02-16 08:32:00,33.5,27.6,29.76,ESE,113,0.4,0.4,79,0.00,,,0.00,WUHU216HW,2013-02-16 13:32:00,
2013-02-16 08:35:00,33.5,27.6,29.76,ESE,113,0.4,0.4,79,0.00,,,0.00,WUHU216HW,2013-02-16 13:35:00,
2013-02-16 08:36:00,33.5,27.6,29.76,ESE,113,0.4,0.4,79,0.00,,,0.00,WUHU216HW,2013-02-16 13:36:00,
2013-02-16 08:37:00,33.5,27.6,29.76,ESE,113,0.4,0.4,79,0.00,,,0.00,WUHU216HW,2013-02-16 13:37:00,
2013-02-16 09:00:00,33.8,27.9,29.75,ESE,113,1.1,1.1,79,0.00,,,0.00,WUHU216HW,2013-02-16 14:00:00,
2013-02-16 09:01:00,33.8,27.9,29.75,ESE,113,1.1,1.1,79,0.00,,,0.00,WUHU216HW,2013-02-16 14:01:00,
2013-02-16 09:05:00,33.8,27.9,29.75,ESE,113,1.1,1.1,79,0.00,,,0.00,WUHU216HW,2013-02-16 14:05:00,
2013-02-16 09:06:00,33.8,27.9,29.75,ESE,113,1.1,1.1,79,0.00,,,0.00,WUHU216HW,2013-02-16 14:06:00,
2013-02-16 09:30:00,34.2,27.6,29.75,ESE,113,1.3,1.3,77,0.00,,,0.00,WUHU216HW,2013-02-16 14:30:00,
2013-02-16 09:31:00,34.2,27.6,29.75,ESE,113,1.3,1.3,77,0.00,,,0.00,WUHU216HW,2013-02-16 14:31:00,
2013-02-16 09:35:00,34.2,27.6,29.75,ESE,113,1.3,1.3,77,0.00,,,0.00,WUHU216HW,2013-02-16 14:35:00,
2013-02-16 09:36:00,34.2,27.6,29.75,ESE,113,1.3,1.3,77,0.00,,,0.00,WUHU216HW,2013-02-16 14:36:00,
2013-02-16 09:37:00,34.2,27.6,29.75,ESE,113,1.3,1.3,77,0.00,,,0.00,WUHU216HW,2013-02-16 14:37:00,
2013-02-16 10:00:00,35.5,27.6,29.75,NE,45,3.1,3.1,73,0.00,,,0.00,WUHU216HW,2013-02-16 15:00:00,
2013-02-16 10:01:00,35.5,27.6,29.75,NE,45,3.1,3.1,73,0.00,,,0.00,WUHU216HW,2013-02-16 15:01:00,
2013-02-16 10:05:00,35.5,27.6,29.75,NE,45,3.1,3.1,73,0.00,,,0.00,WUHU216HW,2013-02-16 15:05:00,
2013-02-16 10:07:00,35.5,27.6,29.75,NE,45,3.1,3.1,73,0.00,,,0.00,WUHU216HW,2013-02-16 15:07:00,
2013-02-16 10:30:00,34.9,26.5,29.75,North,0,2.5,2.5,71,0.00,,,0.00,WUHU216HW,2013-02-16 15:30:00,
2013-02-16 10:31:00,34.9,26.5,29.75,North,0,2.5,2.5,71,0.00,,,0.00,WUHU216HW,2013-02-16 15:31:00,
2013-02-16 10:36:00,34.9,26.5,29.75,North,0,2.5,2.5,71,0.00,,,0.00,WUHU216HW,2013-02-16 15:36:00,
2013-02-16 10:37:00,34.9,26.5,29.75,North,0,2.5,2.5,71,0.00,,,0.00,WUHU216HW,2013-02-16 15:37:00,
2013-02-16 11:00:00,36.0,26.8,29.74,ENE,68,3.1,3.1,69,0.00,,,0.00,WUHU216HW,2013-02-16 16:00:00,
2013-02-16 11:01:00,36.0,26.8,29.74,ENE,68,3.1,3.1,69,0.00,,,0.00,WUHU216HW,2013-02-16 16:01:00,
2013-02-16 11:06:00,36.0,26.8,29.74,ENE,68,3.1,3.1,69,0.00,,,0.00,WUHU216HW,2013-02-16 16:06:00,
2013-02-16 11:07:00,36.0,26.8,29.74,ENE,68,3.1,3.1,69,0.00,,,0.00,WUHU216HW,2013-02-16 16:07:00,
2013-02-16 11:30:00,37.1,26.4,29.73,NNE,23,2.5,2.5,65,0.00,,,0.00,WUHU216HW,2013-02-16 16:30:00,
2013-02-16 11:32:00,37.1,26.4,29.73,NNE,23,2.5,2.5,65,0.00,,,0.00,WUHU216HW,2013-02-16 16:32:00,
2013-02-16 11:35:00,37.1,26.4,29.73,NNE,23,2.5,2.5,65,0.00,,,0.00,WUHU216HW,2013-02-16 16:35:00,
2013-02-16 11:36:00,37.1,26.4,29.73,NNE,23,2.5,2.5,65,0.00,,,0.00,WUHU216HW,2013-02-16 16:36:00,
2013-02-16 11:38:00,37.1,26.4,29.73,NNE,23,2.5,2.5,65,0.00,,,0.00,WUHU216HW,2013-02-16 16:38:00,
2013-02-16 12:00:00,36.7,25.7,29.72,NW,315,2.9,2.9,64,0.00,,,0.00,WUHU216HW,2013-02-16 17:00:00,
2013-02-16 12:05:00,36.7,25.7,29.72,NW,315,2.9,2.9,64,0.00,,,0.00,WUHU216HW,2013-02-16 17:05:00,
2013-02-16 12:06:00,36.7,25.7,29.72,NW,315,2.9,2.9,64,0.00,,,0.00,WUHU216HW,2013-02-16 17:06:00,
2013-02-16 12:07:00,36.7,25.7,29.72,NW,315,2.9,2.9,64,0.00,,,0.00,WUHU216HW,2013-02-16 17:07:00,
2013-02-16 12:30:00,36.9,24.4,29.72,North,0,1.6,1.6,60,0.00,,,0.00,WUHU216HW,2013-02-16 17:30:00,
2013-02-16 12:31:00,36.9,24.4,29.72,North,0,1.6,1.6,60,0.00,,,0.00,WUHU216HW,2013-02-16 17:31:00,
2013-02-16 12:35:00,36.9,24.4,29.72,North,0,1.6,1.6,60,0.00,,,0.00,WUHU216HW,2013-02-16 17:35:00,
2013-02-16 12:36:00,36.9,24.4,29.72,North,0,1.6,1.6,60,0.00,,,0.00,WUHU216HW,2013-02-16 17:36:00,
2013-02-16 13:00:00,34.4,26.2,29.70,ENE,68,4.0,4.0,72,0.00,,,0.00,WUHU216HW,2013-02-16 18:00:00,
2013-02-16 13:05:00,34.4,26.2,29.70,ENE,68,4.0,4.0,72,0.00,,,0.00,WUHU216HW,2013-02-16 18:05:00,
2013-02-16 13:06:00,34.4,26.2,29.70,ENE,68,4.0,4.0,72,0.00,,,0.00,WUHU216HW,2013-02-16 18:06:00,
2013-02-16 13:30:00,35.5,25.9,29.69,NNE,23,0.9,0.9,68,0.00,,,0.00,WUHU216HW,2013-02-16 18:30:00,
2013-02-16 13:31:00,35.5,25.9,29.69,NNE,23,0.9,0.9,68,0.00,,,0.00,WUHU216HW,2013-02-16 18:31:00,
2013-02-16 13:35:00,35.5,25.9,29.69,NNE,23,0.9,0.9,68,0.00,,,0.00,WUHU216HW,2013-02-16 18:35:00,
2013-02-16 13:36:00,35.5,25.9,29.69,NNE,23,0.9,0.9,68,0.00,,,0.00,WUHU216HW,2013-02-16 18:36:00,
2013-02-16 14:00:00,34.9,23.9,29.68,NNE,23,1.8,1.8,64,0.00,,,0.00,WUHU216HW,2013-02-16 19:00:00,
2013-02-16 14:01:00,34.9,23.9,29.68,NNE,23,1.8,1.8,64,0.00,,,0.00,WUHU216HW,2013-02-16 19:01:00,
2013-02-16 14:05:00,34.9,23.9,29.68,NNE,23,1.8,1.8,64,0.00,,,0.00,WUHU216HW,2013-02-16 19:05:00,
2013-02-16 14:06:00,34.9,23.9,29.68,NNE,23,1.8,1.8,64,0.00,,,0.00,WUHU216HW,2013-02-16 19:06:00,
2013-02-16 14:30:00,34.9,23.2,29.67,WNW,293,1.8,1.8,62,0.00,,,0.00,WUHU216HW,2013-02-16 19:30:00,
2013-02-16 14:31:00,34.9,23.2,29.67,WNW,293,1.8,1.8,62,0.00,,,0.00,WUHU216HW,2013-02-16 19:31:00,
2013-02-16 14:35:00,34.9,23.2,29.67,WNW,293,1.8,1.8,62,0.00,,,0.00,WUHU216HW,2013-02-16 19:35:00,
2013-02-16 14:36:00,34.9,23.2,29.67,WNW,293,1.8,1.8,62,0.00,,,0.00,WUHU216HW,2013-02-16 19:36:00,
2013-02-16 15:00:00,35.3,22.9,29.67,NNE,23,2.5,2.5,60,0.00,,,0.00,WUHU216HW,2013-02-16 20:00:00,
2013-02-16 15:05:00,35.3,22.9,29.67,NNE,23,2.5,2.5,60,0.00,,,0.00,WUHU216HW,2013-02-16 20:05:00,
2013-02-16 15:06:00,35.3,22.9,29.67,NNE,23,2.5,2.5,60,0.00,,,0.00,WUHU216HW,2013-02-16 20:06:00,
2013-02-16 15:30:00,34.9,23.2,29.67,NNW,338,3.1,3.1,62,0.00,,,0.00,WUHU216HW,2013-02-16 20:30:00,
2013-02-16 15:35:00,34.9,23.2,29.67,NNW,338,3.1,3.1,62,0.00,,,0.00,WUHU216HW,2013-02-16 20:35:00,
2013-02-16 15:37:00,34.9,23.2,29.67,NNW,338,3.1,3.1,62,0.00,,,0.00,WUHU216HW,2013-02-16 20:37:00,
2013-02-16 15:39:00,34.9,23.2,29.67,NNW,338,3.1,3.1,62,0.00,,,0.00,WUHU216HW,2013-02-16 20:39:00,
2013-02-16 16:00:00,33.7,22.3,29.66,North,0,2.9,2.9,63,0.00,,,0.00,WUHU216HW,2013-02-16 21:00:00,
2013-02-16 16:01:00,33.7,22.3,29.66,North,0,2.9,2.9,63,0.00,,,0.00,WUHU216HW,2013-02-16 21:01:00,
2013-02-16 16:05:00,33.7,22.3,29.66,North,0,2.9,2.9,63,0.00,,,0.00,WUHU216HW,2013-02-16 21:05:00,
2013-02-16 16:06:00,33.7,22.3,29.66,North,0,2.9,2.9,63,0.00,,,0.00,WUHU216HW,2013-02-16 21:06:00,
2013-02-16 16:08:00,33.7,22.3,29.66,North,0,2.9,2.9,63,0.00,,,0.00,WUHU216HW,2013-02-16 21:08:00,
2013-02-16 16:30:00,32.9,21.7,29.66,NNE,23,2.7,2.7,63,0.00,,,0.00,WUHU216HW,2013-02-16 21:30:00,
2013-02-16 16:35:00,32.9,21.7,29.66,NNE,23,2.7,2.7,63,0.00,,,0.00,WUHU216HW,2013-02-16 21:35:00,
2013-02-16 16:37:00,32.9,21.7,29.66,NNE,23,2.7,2.7,63,0.00,,,0.00,WUHU216HW,2013-02-16 21:37:00,
2013-02-16 17:00:00,32.4,19.7,29.67,NNW,338,2.9,2.9,59,0.00,,,0.00,WUHU216HW,2013-02-16 22:00:00,
2013-02-16 17:01:00,32.4,19.7,29.67,NNW,338,2.9,2.9,59,0.00,,,0.00,WUHU216HW,2013-02-16 22:01:00,
2013-02-16 17:05:00,32.4,19.7,29.67,NNW,338,2.9,2.9,59,0.00,,,0.00,WUHU216HW,2013-02-16 22:05:00,
2013-02-16 17:06:00,32.4,19.7,29.67,NNW,338,2.9,2.9,59,0.00,,,0.00,WUHU216HW,2013-02-16 22:06:00,
2013-02-16 17:30:00,31.7,17.7,29.68,NNE,23,2.0,2.0,56,0.00,,,0.00,WUHU216HW,2013-02-16 22:30:00,
2013-02-16 17:31:00,31.7,17.7,29.68,NNE,23,2.0,2.0,56,0.00,,,0.00,WUHU216HW,2013-02-16 22:31:00,
2013-02-16 17:35:00,31.7,17.7,29.68,NNE,23,2.0,2.0,56,0.00,,,0.00,WUHU216HW,2013-02-16 22:35:00,
2013-02-16 17:36:00,31.7,17.7,29.68,NNE,23,2.0,2.0,56,0.00,,,0.00,WUHU216HW,2013-02-16 22:36:00,
2013-02-16 18:00:00,30.6,16.7,29.69,NNW,338,3.4,3.4,56,0.00,,,0.00,WUHU216HW,2013-02-16 23:00:00,
2013-02-16 18:01:00,30.6,16.7,29.69,NNW,338,3.4,3.4,56,0.00,,,0.00,WUHU216HW,2013-02-16 23:01:00,
2013-02-16 18:05:00,30.6,16.7,29.69,NNW,338,3.4,3.4,56,0.00,,,0.00,WUHU216HW,2013-02-16 23:05:00,
2013-02-16 18:06:00,30.6,16.7,29.69,NNW,338,3.4,3.4,56,0.00,,,0.00,WUHU216HW,2013-02-16 23:06:00,
2013-02-16 18:30:00,30.1,16.6,29.69,NW,315,4.5,4.5,57,0.00,,,0.00,WUHU216HW,2013-02-16 23:30:00,
2013-02-16 18:31:00,30.1,16.6,29.69,NW,315,4.5,4.5,57,0.00,,,0.00,WUHU216HW,2013-02-16 23:31:00,
2013-02-16 18:32:00,30.1,16.6,29.69,NW,315,4.5,4.5,57,0.00,,,0.00,WUHU216HW,2013-02-16 23:32:00,
2013-02-16 18:35:00,30.1,16.6,29.69,NW,315,4.5,4.5,57,0.00,,,0.00,WUHU216HW,2013-02-16 23:35:00,
2013-02-16 18:36:00,30.1,16.6,29.69,NW,315,4.5,4.5,57,0.00,,,0.00,WUHU216HW,2013-02-16 23:36:00,
2013-02-16 18:37:00,30.1,16.6,29.69,NW,315,4.5,4.5,57,0.00,,,0.00,WUHU216HW,2013-02-16 23:37:00,
2013-02-16 19:00:00,29.5,15.3,29.70,NNW,338,5.6,5.6,55,0.00,,,0.00,WUHU216HW,2013-02-17 00:00:00,
2013-02-16 19:02:00,29.5,15.3,29.70,NNW,338,5.6,5.6,55,0.00,,,0.00,WUHU216HW,2013-02-17 00:02:00,
2013-02-16 19:05:00,29.5,15.3,29.70,NNW,338,5.6,5.6,55,0.00,,,0.00,WUHU216HW,2013-02-17 00:05:00,
2013-02-16 19:06:00,29.5,15.3,29.70,NNW,338,5.6,5.6,55,0.00,,,0.00,WUHU216HW,2013-02-17 00:06:00,
2013-02-16 19:07:00,29.5,15.3,29.70,NNW,338,5.6,5.6,55,0.00,,,0.00,WUHU216HW,2013-02-17 00:07:00,
2013-02-16 19:30:00,28.8,14.2,29.69,NW,315,4.3,4.3,54,0.00,,,0.00,WUHU216HW,2013-02-17 00:30:00,
2013-02-16 19:31:00,28.8,14.2,29.69,NW,315,4.3,4.3,54,0.00,,,0.00,WUHU216HW,2013-02-17 00:31:00,
2013-02-16 19:35:00,28.8,14.2,29.69,NW,315,4.3,4.3,54,0.00,,,0.00,WUHU216HW,2013-02-17 00:35:00,
2013-02-16 19:36:00,28.8,14.2,29.69,NW,315,4.3,4.3,54,0.00,,,0.00,WUHU216HW,2013-02-17 00:36:00,
2013-02-16 19:37:00,28.8,14.2,29.69,NW,315,4.3,4.3,54,0.00,,,0.00,WUHU216HW,2013-02-17 00:37:00,
2013-02-16 20:00:00,28.1,14.8,29.70,NE,45,1.8,1.8,57,0.00,,,0.00,WUHU216HW,2013-02-17 01:00:00,
2013-02-16 20:05:00,28.1,14.8,29.70,NE,45,1.8,1.8,57,0.00,,,0.00,WUHU216HW,2013-02-17 01:05:00,
2013-02-16 20:06:00,28.1,14.8,29.70,NE,45,1.8,1.8,57,0.00,,,0.00,WUHU216HW,2013-02-17 01:06:00,
2013-02-16 20:30:00,26.8,15.5,29.69,NE,45,1.8,1.8,62,0.00,,,0.00,WUHU216HW,2013-02-17 01:30:00,
2013-02-16 20:31:00,26.8,15.5,29.69,NE,45,1.8,1.8,62,0.00,,,0.00,WUHU216HW,2013-02-17 01:31:00,
2013-02-16 20:35:00,26.8,15.5,29.69,NE,45,1.8,1.8,62,0.00,,,0.00,WUHU216HW,2013-02-17 01:35:00,
2013-02-16 20:36:00,26.8,15.5,29.69,NE,45,1.8,1.8,62,0.00,,,0.00,WUHU216HW,2013-02-17 01:36:00,
2013-02-16 20:37:00,26.8,15.5,29.69,NE,45,1.8,1.8,62,0.00,,,0.00,WUHU216HW,2013-02-17 01:37:00,
2013-02-16 21:00:00,26.6,15.3,29.69,NE,45,3.4,3.4,62,0.00,,,0.00,WUHU216HW,2013-02-17 02:00:00,
2013-02-16 21:01:00,26.6,15.3,29.69,NE,45,3.4,3.4,62,0.00,,,0.00,WUHU216HW,2013-02-17 02:01:00,
2013-02-16 21:05:00,26.6,15.3,29.69,NE,45,3.4,3.4,62,0.00,,,0.00,WUHU216HW,2013-02-17 02:05:00,
2013-02-16 21:06:00,26.6,15.3,29.69,NE,45,3.4,3.4,62,0.00,,,0.00,WUHU216HW,2013-02-17 02:06:00,
2013-02-16 21:07:00,26.6,15.3,29.69,NE,45,3.4,3.4,62,0.00,,,0.00,WUHU216HW,2013-02-17 02:07:00,
2013-02-16 21:30:00,25.6,15.4,29.69,NE,45,0.4,0.4,65,0.00,,,0.00,WUHU216HW,2013-02-17 02:30:00,
2013-02-16 21:32:00,25.6,15.7,29.69,NE,45,0.9,0.9,66,0.00,,,0.00,WUHU216HW,2013-02-17 02:32:00,
2013-02-16 21:35:00,25.4,15.6,29.69,NE,45,2.5,2.5,66,0.00,,,0.00,WUHU216HW,2013-02-17 02:35:00,
2013-02-16 21:38:00,25.2,15.4,29.69,NE,45,1.1,2.5,66,0.00,,,0.00,WUHU216HW,2013-02-17 02:38:00,
2013-02-16 21:40:00,25.2,15.7,29.69,NE,45,0.4,2.5,67,0.00,,,0.00,WUHU216HW,2013-02-17 02:40:00,
2013-02-16 21:43:00,25.0,15.2,29.69,NE,45,1.1,2.5,66,0.00,,,0.00,WUHU216HW,2013-02-17 02:43:00,
2013-02-16 21:46:00,24.8,15.0,29.69,NE,45,0.0,1.8,66,0.00,,,0.00,WUHU216HW,2013-02-17 02:46:00,
2013-02-16 21:47:00,24.8,15.0,29.69,NE,45,0.0,1.8,66,0.00,,,0.00,WUHU216HW,2013-02-17 02:47:00,
2013-02-16 21:48:00,24.8,15.0,29.69,NE,45,0.7,1.6,66,0.00,,,0.00,WUHU216HW,2013-02-17 02:48:00,
2013-02-16 21:52:00,25.0,14.9,29.69,NE,45,0.2,1.8,65,0.00,,,0.00,WUHU216HW,2013-02-17 02:52:00,
2013-02-16 21:53:00,25.0,14.9,29.69,NE,45,0.0,1.8,65,0.00,,,0.00,WUHU216HW,2013-02-17 02:53:00,
2013-02-16 21:57:00,25.0,14.9,29.69,NE,45,0.0,1.8,65,0.00,,,0.00,WUHU216HW,2013-02-17 02:57:00,
2013-02-16 21:58:00,25.0,14.9,29.69,NE,45,0.0,1.8,65,0.00,,,0.00,WUHU216HW,2013-02-17 02:58:00,
2013-02-16 21:59:00,24.8,14.7,29.69,NE,45,0.7,0.9,65,0.00,,,0.00,WUHU216HW,2013-02-17 02:59:00,
2013-02-16 22:03:00,24.8,14.7,29.69,NE,45,0.0,0.7,65,0.00,,,0.00,WUHU216HW,2013-02-17 03:03:00,
2013-02-16 22:04:00,24.8,14.7,29.69,NE,45,0.0,0.7,65,0.00,,,0.00,WUHU216HW,2013-02-17 03:04:00,
2013-02-16 22:08:00,24.8,15.0,29.69,NE,45,0.4,0.9,66,0.00,,,0.00,WUHU216HW,2013-02-17 03:08:00,
2013-02-16 22:09:00,24.8,15.0,29.69,NE,45,1.8,1.8,66,0.00,,,0.00,WUHU216HW,2013-02-17 03:09:00,
2013-02-16 22:10:00,24.8,15.0,29.69,NE,45,1.8,1.8,66,0.00,,,0.00,WUHU216HW,2013-02-17 03:10:00,
2013-02-16 22:13:00,24.8,15.0,29.69,NE,45,1.1,1.8,66,0.00,,,0.00,WUHU216HW,2013-02-17 03:13:00,
2013-02-16 22:14:00,24.8,15.0,29.69,NE,45,0.2,1.8,66,0.00,,,0.00,WUHU216HW,2013-02-17 03:14:00,
2013-02-16 22:15:00,24.8,15.0,29.69,NE,45,0.7,1.8,66,0.00,,,0.00,WUHU216HW,2013-02-17 03:15:00,
2013-02-16 22:16:00,24.8,15.0,29.69,NE,45,0.7,1.8,66,0.00,,,0.00,WUHU216HW,2013-02-17 03:16:00,
2013-02-16 22:19:00,24.7,14.9,29.69,NE,45,1.1,1.8,66,0.00,,,0.00,WUHU216HW,2013-02-17 03:19:00,
2013-02-16 22:20:00,24.7,14.9,29.69,NE,45,1.1,1.8,66,0.00,,,0.00,WUHU216HW,2013-02-17 03:20:00,
2013-02-16 22:21:00,24.7,14.9,29.69,NE,45,0.0,1.3,66,0.00,,,0.00,WUHU216HW,2013-02-17 03:21:00,
2013-02-16 22:24:00,24.7,14.9,29.69,NE,45,0.9,1.1,66,0.00,,,0.00,WUHU216HW,2013-02-17 03:24:00,
2013-02-16 22:25:00,24.7,14.9,29.69,NE,45,0.9,1.1,66,0.00,,,0.00,WUHU216HW,2013-02-17 03:25:00,
2013-02-16 22:26:00,24.7,14.9,29.69,NE,45,1.8,1.8,66,0.00,,,0.00,WUHU216HW,2013-02-17 03:26:00,
2013-02-16 22:27:00,24.7,15.2,29.69,NE,45,1.6,2.5,67,0.00,,,0.00,WUHU216HW,2013-02-17 03:27:00,
2013-02-16 22:29:00,24.5,15.8,29.69,NE,45,1.8,2.5,69,0.00,,,0.00,WUHU216HW,2013-02-17 03:29:00,
2013-02-16 22:31:00,24.5,15.8,29.69,NE,45,0.2,2.5,69,0.00,,,0.00,WUHU216HW,2013-02-17 03:31:00,
2013-02-16 22:33:00,24.3,15.6,29.69,NE,45,0.9,2.5,69,0.00,,,0.00,WUHU216HW,2013-02-17 03:33:00,
2013-02-16 22:34:00,24.3,15.6,29.69,NE,45,0.9,2.5,69,0.00,,,0.00,WUHU216HW,2013-02-17 03:34:00,
2013-02-16 22:36:00,24.5,15.8,29.69,NE,45,1.8,2.5,69,0.00,,,0.00,WUHU216HW,2013-02-17 03:36:00,
2013-02-16 22:39:00,24.5,16.0,29.69,NE,45,4.0,4.0,70,0.00,,,0.00,WUHU216HW,2013-02-17 03:39:00,
2013-02-16 22:40:00,24.5,16.0,29.69,NE,45,4.0,4.0,70,0.00,,,0.00,WUHU216HW,2013-02-17 03:40:00,
2013-02-16 22:41:00,24.7,16.2,29.69,NE,45,1.8,4.0,70,0.00,,,0.00,WUHU216HW,2013-02-17 03:41:00,
2013-02-16 22:42:00,24.7,16.2,29.69,NE,45,0.4,4.0,70,0.00,,,0.00,WUHU216HW,2013-02-17 03:42:00,
2013-02-16 22:45:00,24.7,16.2,29.69,NE,45,0.2,4.0,70,0.00,,,0.00,WUHU216HW,2013-02-17 03:45:00,
2013-02-16 22:47:00,24.5,16.0,29.69,NE,45,1.6,4.0,70,0.00,,,0.00,WUHU216HW,2013-02-17 03:47:00,
2013-02-16 22:48:00,24.7,16.6,29.69,NE,45,2.7,4.0,71,0.00,,,0.00,WUHU216HW,2013-02-17 03:48:00,
2013-02-16 22:50:00,24.5,16.8,29.69,NE,45,1.8,2.9,72,0.00,,,0.00,WUHU216HW,2013-02-17 03:50:00,
2013-02-16 22:51:00,24.5,16.8,29.69,NE,45,1.6,2.9,72,0.00,,,0.00,WUHU216HW,2013-02-17 03:51:00,
2013-02-16 22:52:00,24.5,16.8,29.69,NE,45,1.3,2.9,72,0.00,,,0.00,WUHU216HW,2013-02-17 03:52:00,
2013-02-16 22:53:00,24.5,16.8,29.69,NE,45,1.1,2.9,72,0.00,,,0.00,WUHU216HW,2013-02-17 03:53:00,
2013-02-16 22:56:00,24.5,16.8,29.69,NE,45,1.6,2.9,72,0.00,,,0.00,WUHU216HW,2013-02-17 03:56:00,
2013-02-16 22:57:00,24.5,16.8,29.69,NE,45,1.1,2.9,72,0.00,,,0.00,WUHU216HW,2013-02-17 03:57:00,
2013-02-16 22:58:00,24.5,16.8,29.69,NE,45,0.4,2.9,72,0.00,,,0.00,WUHU216HW,2013-02-17 03:58:00,
2013-02-16 22:59:00,24.5,16.8,29.69,NE,45,0.2,1.8,72,0.00,,,0.00,WUHU216HW,2013-02-17 03:59:00,
2013-02-16 23:01:00,24.3,16.2,29.69,NE,45,0.4,1.6,71,0.00,,,0.00,WUHU216HW,2013-02-17 04:01:00,
2013-02-16 23:02:00,24.3,16.2,29.69,NE,45,0.0,1.6,71,0.00,,,0.00,WUHU216HW,2013-02-17 04:02:00,
2013-02-16 23:04:00,24.3,16.2,29.69,NE,45,2.2,2.2,71,0.00,,,0.00,WUHU216HW,2013-02-17 04:04:00,
2013-02-16 23:07:00,24.1,16.4,29.69,NE,45,0.0,2.2,72,0.00,,,0.00,WUHU216HW,2013-02-17 04:07:00,
2013-02-16 23:09:00,24.1,16.4,29.68,NE,45,0.4,2.2,72,0.00,,,0.00,WUHU216HW,2013-02-17 04:09:00,
2013-02-16 23:10:00,24.1,16.4,29.69,NE,45,0.4,2.2,72,0.00,,,0.00,WUHU216HW,2013-02-17 04:10:00,
2013-02-16 23:12:00,24.1,16.4,29.69,NE,45,0.2,2.2,72,0.00,,,0.00,WUHU216HW,2013-02-17 04:12:00,
2013-02-16 23:13:00,24.1,16.4,29.69,NE,45,0.2,2.2,72,0.00,,,0.00,WUHU216HW,2013-02-17 04:13:00,
2013-02-16 23:14:00,23.9,15.9,29.69,NE,45,0.0,0.9,71,0.00,,,0.00,WUHU216HW,2013-02-17 04:14:00,
2013-02-16 23:16:00,23.9,15.9,29.68,NE,45,0.0,0.4,71,0.00,,,0.00,WUHU216HW,2013-02-17 04:16:00,
2013-02-16 23:17:00,23.8,15.8,29.69,NE,45,0.0,0.4,71,0.00,,,0.00,WUHU216HW,2013-02-17 04:17:00,
2013-02-16 23:18:00,23.8,15.8,29.69,NE,45,0.0,0.4,71,0.00,,,0.00,WUHU216HW,2013-02-17 04:18:00,
2013-02-16 23:19:00,23.8,15.8,29.69,NE,45,0.4,0.4,71,0.00,,,0.00,WUHU216HW,2013-02-17 04:19:00,
2013-02-16 23:21:00,23.8,15.8,29.69,NE,45,0.0,1.1,71,0.00,,,0.00,WUHU216HW,2013-02-17 04:21:00,
2013-02-16 23:22:00,23.8,15.8,29.69,NE,45,0.0,1.1,71,0.00,,,0.00,WUHU216HW,2013-02-17 04:22:00,
2013-02-16 23:23:00,23.8,15.8,29.69,NE,45,0.0,1.1,71,0.00,,,0.00,WUHU216HW,2013-02-17 04:23:00,
2013-02-16 23:25:00,23.8,15.8,29.69,NE,45,1.1,1.1,71,0.00,,,0.00,WUHU216HW,2013-02-17 04:25:00,
2013-02-16 23:26:00,23.6,15.6,29.69,NE,45,1.1,1.1,71,0.00,,,0.00,WUHU216HW,2013-02-17 04:26:00,
2013-02-16 23:28:00,23.6,15.6,29.69,NE,45,0.9,1.1,71,0.00,,,0.00,WUHU216HW,2013-02-17 04:28:00,
2013-02-16 23:30:00,23.6,15.6,29.68,NE,45,0.4,1.1,71,0.00,,,0.00,WUHU216HW,2013-02-17 04:30:00,
2013-02-16 23:32:00,23.6,15.6,29.69,NE,45,0.4,1.1,71,0.00,,,0.00,WUHU216HW,2013-02-17 04:32:00,
2013-02-16 23:33:00,23.4,15.7,29.68,NE,45,0.0,1.1,72,0.00,,,0.00,WUHU216HW,2013-02-17 04:33:00,
2013-02-16 23:35:00,23.4,15.7,29.68,NE,45,0.4,1.1,72,0.00,,,0.00,WUHU216HW,2013-02-17 04:35:00,
2013-02-16 23:37:00,23.4,15.7,29.68,NE,45,1.1,1.1,72,0.00,,,0.00,WUHU216HW,2013-02-17 04:37:00,
2013-02-16 23:39:00,23.4,15.7,29.69,NE,45,0.4,1.1,72,0.00,,,0.00,WUHU216HW,2013-02-17 04:39:00,
2013-02-16 23:40:00,23.4,15.7,29.69,NE,45,0.4,1.1,72,0.00,,,0.00,WUHU216HW,2013-02-17 04:40:00,
2013-02-16 23:41:00,23.4,15.7,29.69,NE,45,1.6,1.6,72,0.00,,,0.00,WUHU216HW,2013-02-17 04:41:00,
2013-02-16 23:42:00,23.4,15.7,29.69,NE,45,0.4,1.6,72,0.00,,,0.00,WUHU216HW,2013-02-17 04:42:00,
2013-02-16 23:46:00,23.4,15.7,29.68,NE,45,0.4,4.0,72,0.00,,,0.00,WUHU216HW,2013-02-17 04:46:00,
2013-02-16 23:47:00,23.4,15.7,29.68,NE,45,0.4,4.0,72,0.00,,,0.00,WUHU216HW,2013-02-17 04:47:00,
2013-02-16 23:48:00,23.4,15.7,29.68,NE,45,0.4,4.0,72,0.00,,,0.00,WUHU216HW,2013-02-17 04:48:00,
2013-02-16 23:51:00,23.4,15.7,29.68,NE,45,0.4,4.0,72,0.00,,,0.00,WUHU216HW,2013-02-17 04:51:00,
2013-02-16 23:53:00,23.4,15.7,29.68,NE,45,0.4,1.1,72,0.00,,,0.00,WUHU216HW,2013-02-17 04:53:00,
2013-02-16 23:54:00,23.4,15.7,29.68,NE,45,0.4,0.4,72,0.00,,,0.00,WUHU216HW,2013-02-17 04:54:00,